Time,TemperatureF,DewpointF,PressureIn,WindDirection,WindDirectionDegrees,WindSpeedMPH,WindSpeedGustMPH,Humidity,HourlyPrecipIn,Conditions,Clouds,dailyrainin,SoftwareType,DateUTC
2013-07-17 00:01:00,79.0,71.0,30.21,North,355,0.0,0.0,76,0.00,,,0.00,,2013-07-17 04:01:00,
2013-07-17 00:22:00,79.0,69.0,30.21,North,355,0.0,0.0,71,0.00,,,0.00,,2013-07-17 04:22:00,
2013-07-17 00:32:00,79.0,69.0,30.21,North,355,0.0,0.0,71,0.00,,,0.00,,2013-07-17 04:32:00,
2013-07-17 00:43:00,79.0,69.0,30.21,North,355,0.0,0.0,71,0.00,,,0.00,,2013-07-17 04:43:00,
2013-07-17 00:53:00,79.0,69.0,30.21,North,355,0.0,0.0,71,0.00,,,0.00,,2013-07-17 04:53:00,
2013-07-17 01:01:00,78.0,68.0,30.20,North,355,0.0,0.0,71,0.00,,,0.00,,2013-07-17 05:01:00,
2013-07-17 01:22:00,78.0,68.0,30.20,North,355,0.0,0.0,71,0.00,,,0.00,,2013-07-17 05:22:00,
2013-07-17 01:32:00,78.0,68.0,30.20,North,355,0.0,0.0,71,0.00,,,0.00,,2013-07-17 05:32:00,
2013-07-17 01:43:00,78.0,68.0,30.20,North,355,0.0,0.0,71,0.00,,,0.00,,2013-07-17 05:43:00,
2013-07-17 01:52:00,78.0,68.0,30.20,North,355,0.0,0.0,71,0.00,,,0.00,,2013-07-17 05:52:00,
2013-07-17 02:22:00,77.0,69.0,30.19,North,355,0.0,0.0,76,0.00,,,0.00,,2013-07-17 06:22:00,
2013-07-17 02:33:00,77.0,69.0,30.19,North,355,0.0,0.0,76,0.00,,,0.00,,2013-07-17 06:33:00,
2013-07-17 02:43:00,77.0,69.0,30.19,North,355,0.0,0.0,76,0.00,,,0.00,,2013-07-17 06:43:00,
2013-07-17 02:52:00,77.0,69.0,30.19,North,355,0.0,0.0,76,0.00,,,0.00,,2013-07-17 06:52:00,
2013-07-17 03:01:00,77.0,69.0,30.19,North,355,0.0,0.0,76,0.00,,,0.00,,2013-07-17 07:01:00,
2013-07-17 03:32:00,77.0,69.0,30.19,North,355,0.0,1.0,76,0.00,,,0.00,,2013-07-17 07:32:00,
2013-07-17 03:42:00,77.0,69.0,30.19,North,355,0.0,1.0,76,0.00,,,0.00,,2013-07-17 07:42:00,
2013-07-17 03:52:00,77.0,69.0,30.19,North,355,0.0,1.0,76,0.00,,,0.00,,2013-07-17 07:52:00,
2013-07-17 04:01:00,76.0,68.0,30.19,North,355,0.0,0.0,76,0.00,,,0.00,,2013-07-17 08:01:00,
2013-07-17 04:22:00,76.0,68.0,30.19,North,355,0.0,0.0,76,0.00,,,0.00,,2013-07-17 08:22:00,
2013-07-17 04:32:00,76.0,68.0,30.19,North,355,0.0,0.0,76,0.00,,,0.00,,2013-07-17 08:32:00,
2013-07-17 04:43:00,76.0,68.0,30.19,North,355,0.0,0.0,76,0.00,,,0.00,,2013-07-17 08:43:00,
2013-07-17 04:53:00,76.0,68.0,30.19,North,355,0.0,0.0,76,0.00,,,0.00,,2013-07-17 08:53:00,
2013-07-17 05:01:00,75.0,68.0,30.21,North,355,0.0,1.0,79,0.00,,,0.00,,2013-07-17 09:01:00,
2013-07-17 05:22:00,75.0,68.0,30.21,North,355,0.0,1.0,79,0.00,,,0.00,,2013-07-17 09:22:00,
2013-07-17 05:32:00,75.0,68.0,30.21,North,355,0.0,1.0,79,0.00,,,0.00,,2013-07-17 09:32:00,
2013-07-17 05:43:00,75.0,68.0,30.21,North,355,0.0,1.0,79,0.00,,,0.00,,2013-07-17 09:43:00,
2013-07-17 05:52:00,75.0,68.0,30.21,North,355,0.0,1.0,79,0.00,,,0.00,,2013-07-17 09:52:00,
2013-07-17 06:01:00,75.0,68.0,30.22,North,355,0.0,0.0,80,0.00,,,0.00,,2013-07-17 10:01:00,
2013-07-17 06:22:00,75.0,68.0,30.22,North,355,0.0,0.0,80,0.00,,,0.00,,2013-07-17 10:22:00,
2013-07-17 06:32:00,75.0,68.0,30.22,North,355,0.0,0.0,80,0.00,,,0.00,,2013-07-17 10:32:00,
2013-07-17 06:43:00,75.0,68.0,30.22,North,355,0.0,0.0,80,0.00,,,0.00,,2013-07-17 10:43:00,
2013-07-17 06:52:00,75.0,68.0,30.22,North,355,0.0,0.0,80,0.00,,,0.00,,2013-07-17 10:52:00,
2013-07-17 07:01:00,76.0,69.0,30.22,SSE,155,0.0,0.0,80,0.00,,,0.00,,2013-07-17 11:01:00,
2013-07-17 07:32:00,76.0,69.0,30.22,SSE,155,0.0,0.0,80,0.00,,,0.00,,2013-07-17 11:32:00,
2013-07-17 07:42:00,76.0,69.0,30.22,SSE,155,0.0,0.0,80,0.00,,,0.00,,2013-07-17 11:42:00,
2013-07-17 07:52:00,76.0,69.0,30.22,SSE,155,0.0,0.0,80,0.00,,,0.00,,2013-07-17 11:52:00,
2013-07-17 08:01:00,81.0,73.0,30.22,SSE,155,0.0,1.0,76,0.00,,,0.00,,2013-07-17 12:01:00,
2013-07-17 08:53:00,81.0,73.0,30.22,SSE,155,0.0,1.0,76,0.00,,,0.00,,2013-07-17 12:53:00,
2013-07-17 09:02:00,84.0,75.0,30.23,ESE,109,0.0,1.0,74,0.00,,,0.00,,2013-07-17 13:02:00,
2013-07-17 09:32:00,84.0,75.0,30.23,ESE,109,0.0,1.0,74,0.00,,,0.00,,2013-07-17 13:32:00,
2013-07-17 09:43:00,84.0,75.0,30.23,ESE,109,0.0,1.0,74,0.00,,,0.00,,2013-07-17 13:43:00,
2013-07-17 09:53:00,84.0,75.0,30.23,ESE,109,0.0,1.0,74,0.00,,,0.00,,2013-07-17 13:53:00,
2013-07-17 10:01:00,84.0,74.0,30.24,NE,49,1.0,5.0,71,0.00,,,0.00,,2013-07-17 14:01:00,
2013-07-17 10:22:00,84.0,74.0,30.24,NE,49,1.0,5.0,71,0.00,,,0.00,,2013-07-17 14:22:00,
2013-07-17 10:32:00,84.0,74.0,30.24,NE,49,1.0,5.0,71,0.00,,,0.00,,2013-07-17 14:32:00,
2013-07-17 10:43:00,84.0,74.0,30.24,NE,49,1.0,5.0,71,0.00,,,0.00,,2013-07-17 14:43:00,
2013-07-17 10:52:00,84.0,74.0,30.24,NE,49,1.0,5.0,71,0.00,,,0.00,,2013-07-17 14:52:00,
2013-07-17 11:01:00,86.0,75.0,30.23,NE,35,1.0,10.0,70,0.00,,,0.00,,2013-07-17 15:01:00,
2013-07-17 11:22:00,86.0,75.0,30.23,NE,35,1.0,10.0,70,0.00,,,0.00,,2013-07-17 15:22:00,
2013-07-17 11:32:00,86.0,75.0,30.23,NE,35,1.0,10.0,70,0.00,,,0.00,,2013-07-17 15:32:00,
2013-07-17 11:43:00,86.0,75.0,30.23,NE,35,1.0,10.0,70,0.00,,,0.00,,2013-07-17 15:43:00,
2013-07-17 11:52:00,86.0,75.0,30.23,NE,35,1.0,10.0,70,0.00,,,0.00,,2013-07-17 15:52:00,
2013-07-17 12:01:00,87.0,76.0,30.22,WNW,298,0.0,4.0,70,0.00,,,0.00,,2013-07-17 16:01:00,
2013-07-17 12:22:00,87.0,76.0,30.22,WNW,298,0.0,4.0,70,0.00,,,0.00,,2013-07-17 16:22:00,
2013-07-17 12:33:00,87.0,76.0,30.22,WNW,298,0.0,4.0,70,0.00,,,0.00,,2013-07-17 16:33:00,
2013-07-17 12:43:00,87.0,76.0,30.22,WNW,298,0.0,4.0,70,0.00,,,0.00,,2013-07-17 16:43:00,
2013-07-17 12:52:00,87.0,76.0,30.22,WNW,298,0.0,4.0,70,0.00,,,0.00,,2013-07-17 16:52:00,
2013-07-17 13:01:00,88.0,73.0,30.21,East,88,0.0,1.0,62,0.00,,,0.00,,2013-07-17 17:01:00,
2013-07-17 13:22:00,88.0,73.0,30.21,East,88,0.0,1.0,62,0.00,,,0.00,,2013-07-17 17:22:00,
2013-07-17 13:32:00,88.0,73.0,30.21,East,88,0.0,1.0,62,0.00,,,0.00,,2013-07-17 17:32:00,
2013-07-17 13:43:00,88.0,73.0,30.21,East,88,0.0,1.0,62,0.00,,,0.00,,2013-07-17 17:43:00,
2013-07-17 13:52:00,88.0,73.0,30.21,East,88,0.0,1.0,62,0.00,,,0.00,,2013-07-17 17:52:00,
2013-07-17 14:01:00,89.0,76.0,30.19,NW,312,0.0,1.0,66,0.00,,,0.00,,2013-07-17 18:01:00,
2013-07-17 14:22:00,89.0,76.0,30.19,NW,312,0.0,1.0,66,0.00,,,0.00,,2013-07-17 18:22:00,
2013-07-17 14:32:00,89.0,76.0,30.19,NW,312,0.0,1.0,66,0.00,,,0.00,,2013-07-17 18:32:00,
2013-07-17 14:43:00,89.0,76.0,30.19,NW,312,0.0,1.0,66,0.00,,,0.00,,2013-07-17 18:43:00,
2013-07-17 14:52:00,89.0,76.0,30.19,NW,312,0.0,1.0,66,0.00,,,0.00,,2013-07-17 18:52:00,
2013-07-17 15:01:00,90.0,76.0,30.17,ENE,64,0.0,4.0,64,0.00,,,0.00,,2013-07-17 19:01:00,
2013-07-17 15:22:00,90.0,76.0,30.17,ENE,64,0.0,4.0,64,0.00,,,0.00,,2013-07-17 19:22:00,
2013-07-17 15:32:00,90.0,76.0,30.17,ENE,64,0.0,4.0,64,0.00,,,0.00,,2013-07-17 19:32:00,
2013-07-17 15:43:00,90.0,76.0,30.17,ENE,64,0.0,4.0,64,0.00,,,0.00,,2013-07-17 19:43:00,
2013-07-17 15:53:00,90.0,76.0,30.17,ENE,64,0.0,4.0,64,0.00,,,0.00,,2013-07-17 19:53:00,
2013-07-17 16:01:00,91.0,74.0,30.15,NW,313,0.0,1.0,58,0.00,,,0.00,,2013-07-17 20:01:00,
2013-07-17 16:22:00,91.0,74.0,30.15,NW,313,0.0,1.0,58,0.00,,,0.00,,2013-07-17 20:22:00,
2013-07-17 16:33:00,91.0,74.0,30.15,NW,313,0.0,1.0,58,0.00,,,0.00,,2013-07-17 20:33:00,
2013-07-17 16:43:00,91.0,74.0,30.15,NW,313,0.0,1.0,58,0.00,,,0.00,,2013-07-17 20:43:00,
2013-07-17 16:53:00,91.0,74.0,30.15,NW,313,0.0,1.0,58,0.00,,,0.00,,2013-07-17 20:53:00,
2013-07-17 17:01:00,90.0,77.0,30.14,NW,309,0.0,0.0,66,0.00,,,0.00,,2013-07-17 21:01:00,
2013-07-17 17:22:00,90.0,77.0,30.14,NW,309,0.0,0.0,66,0.00,,,0.00,,2013-07-17 21:22:00,
2013-07-17 17:32:00,90.0,77.0,30.14,NW,309,0.0,0.0,66,0.00,,,0.00,,2013-07-17 21:32:00,
2013-07-17 17:42:00,90.0,77.0,30.14,NW,309,0.0,0.0,66,0.00,,,0.00,,2013-07-17 21:42:00,
2013-07-17 17:53:00,90.0,77.0,30.14,NW,309,0.0,0.0,66,0.00,,,0.00,,2013-07-17 21:53:00,
2013-07-17 18:01:00,90.0,78.0,30.12,West,277,0.0,0.0,68,0.00,,,0.00,,2013-07-17 22:01:00,
2013-07-17 18:22:00,90.0,78.0,30.12,West,277,0.0,0.0,68,0.00,,,0.00,,2013-07-17 22:22:00,
2013-07-17 18:32:00,90.0,78.0,30.12,West,277,0.0,0.0,68,0.00,,,0.00,,2013-07-17 22:32:00,
2013-07-17 18:43:00,90.0,78.0,30.12,West,277,0.0,0.0,68,0.00,,,0.00,,2013-07-17 22:43:00,
2013-07-17 18:53:00,90.0,78.0,30.12,West,277,0.0,0.0,68,0.00,,,0.00,,2013-07-17 22:53:00,
2013-07-17 19:01:00,86.0,76.0,30.12,West,279,0.0,0.0,72,0.00,,,0.00,,2013-07-17 23:01:00,
2013-07-17 19:33:00,86.0,76.0,30.12,West,279,0.0,0.0,72,0.00,,,0.00,,2013-07-17 23:33:00,
2013-07-17 19:43:00,86.0,76.0,30.12,West,279,0.0,0.0,72,0.00,,,0.00,,2013-07-17 23:43:00,
2013-07-17 19:52:00,86.0,76.0,30.12,West,279,0.0,0.0,72,0.00,,,0.00,,2013-07-17 23:52:00,
2013-07-17 20:01:00,83.0,74.0,30.12,SW,221,0.0,0.0,74,0.00,,,0.00,,2013-07-18 00:01:00,
2013-07-17 20:22:00,83.0,74.0,30.12,SW,221,0.0,0.0,74,0.00,,,0.00,,2013-07-18 00:22:00,
2013-07-17 20:33:00,83.0,74.0,30.12,SW,221,0.0,0.0,74,0.00,,,0.00,,2013-07-18 00:33:00,
2013-07-17 20:43:00,83.0,74.0,30.12,SW,221,0.0,0.0,74,0.00,,,0.00,,2013-07-18 00:43:00,
2013-07-17 20:52:00,83.0,74.0,30.12,SW,221,0.0,0.0,74,0.00,,,0.00,,2013-07-18 00:52:00,
2013-07-17 21:02:00,80.0,74.0,30.12,SW,221,0.0,0.0,81,0.00,,,0.00,,2013-07-18 01:02:00,
2013-07-17 21:22:00,80.0,74.0,30.12,SW,221,0.0,0.0,81,0.00,,,0.00,,2013-07-18 01:22:00,
2013-07-17 21:32:00,80.0,74.0,30.12,SW,221,0.0,0.0,81,0.00,,,0.00,,2013-07-18 01:32:00,
2013-07-17 21:43:00,80.0,74.0,30.12,SW,221,0.0,0.0,81,0.00,,,0.00,,2013-07-18 01:43:00,
2013-07-17 21:53:00,80.0,74.0,30.12,SW,221,0.0,0.0,81,0.00,,,0.00,,2013-07-18 01:53:00,
2013-07-17 22:01:00,78.0,73.0,30.12,SW,221,0.0,0.0,85,0.00,,,0.00,,2013-07-18 02:01:00,
2013-07-17 22:22:00,78.0,73.0,30.12,SW,221,0.0,0.0,85,0.00,,,0.00,,2013-07-18 02:22:00,
2013-07-17 22:32:00,78.0,73.0,30.12,SW,221,0.0,0.0,85,0.00,,,0.00,,2013-07-18 02:32:00,
2013-07-17 22:43:00,78.0,73.0,30.12,SW,221,0.0,0.0,85,0.00,,,0.00,,2013-07-18 02:43:00,
2013-07-17 22:52:00,78.0,73.0,30.12,SW,221,0.0,0.0,85,0.00,,,0.00,,2013-07-18 02:52:00,
2013-07-17 23:01:00,78.0,72.0,30.13,SW,221,0.0,0.0,83,0.00,,,0.00,,2013-07-18 03:01:00,
2013-07-17 23:32:00,78.0,72.0,30.13,SW,221,0.0,0.0,83,0.00,,,0.00,,2013-07-18 03:32:00,
2013-07-17 23:43:00,78.0,72.0,30.13,SW,221,0.0,0.0,83,0.00,,,0.00,,2013-07-18 03:43:00,
2013-07-17 23:52:00,78.0,72.0,30.13,SW,221,0.0,0.0,83,0.00,,,0.00,,2013-07-18 03:52:00,